sensor_id;sensor_type;location;lat;lon;timestamp;P1;durP1;ratioP1;P2;durP2;ratioP2
17890;SDS011;9071;48.220;14.480;2023-07-24T00:04:26;7.28;;;4.70;;
17890;SDS011;9071;48.220;14.480;2023-07-24T00:09:30;6.50;;;4.55;;
17890;SDS011;9071;48.220;14.480;2023-07-24T00:14:32;8.10;;;4.90;;
17890;SDS011;9071;48.220;14.480;2023-07-24T00:19:34;7.47;;;4.90;;
17890;SDS011;9071;48.220;14.480;2023-07-24T00:24:37;6.45;;;4.32;;
17890;SDS011;9071;48.220;14.480;2023-07-24T00:29:40;10.65;;;5.07;;
17890;SDS011;9071;48.220;14.480;2023-07-24T00:34:42;9.70;;;5.80;;
17890;SDS011;9071;48.220;14.480;2023-07-24T00:39:45;8.05;;;5.03;;
17890;SDS011;9071;48.220;14.480;2023-07-24T00:44:47;9.50;;;5.75;;
17890;SDS011;9071;48.220;14.480;2023-07-24T00:49:49;8.60;;;5.55;;
17890;SDS011;9071;48.220;14.480;2023-07-24T00:54:53;11.77;;;5.85;;
17890;SDS011;9071;48.220;14.480;2023-07-24T00:59:55;8.93;;;5.85;;
17890;SDS011;9071;48.220;14.480;2023-07-24T01:04:57;9.38;;;5.50;;
17890;SDS011;9071;48.220;14.480;2023-07-24T01:10:02;6.57;;;5.38;;
17890;SDS011;9071;48.220;14.480;2023-07-24T01:15:06;8.32;;;5.60;;
17890;SDS011;9071;48.220;14.480;2023-07-24T01:20:12;10.05;;;5.70;;
17890;SDS011;9071;48.220;14.480;2023-07-24T01:25:22;8.05;;;5.53;;
17890;SDS011;9071;48.220;14.480;2023-07-24T01:30:34;7.68;;;5.25;;
17890;SDS011;9071;48.220;14.480;2023-07-24T01:35:36;8.32;;;5.57;;
17890;SDS011;9071;48.220;14.480;2023-07-24T01:40:39;9.00;;;5.55;;
17890;SDS011;9071;48.220;14.480;2023-07-24T01:45:43;9.20;;;6.20;;
17890;SDS011;9071;48.220;14.480;2023-07-24T01:50:45;9.45;;;5.75;;
17890;SDS011;9071;48.220;14.480;2023-07-24T01:55:47;8.35;;;5.80;;
17890;SDS011;9071;48.220;14.480;2023-07-24T02:00:51;7.35;;;5.28;;
17890;SDS011;9071;48.220;14.480;2023-07-24T02:05:56;9.20;;;5.57;;
17890;SDS011;9071;48.220;14.480;2023-07-24T02:10:58;8.15;;;5.75;;
17890;SDS011;9071;48.220;14.480;2023-07-24T02:16:01;10.02;;;5.88;;
17890;SDS011;9071;48.220;14.480;2023-07-24T02:21:03;8.55;;;5.70;;
17890;SDS011;9071;48.220;14.480;2023-07-24T02:26:05;8.20;;;5.60;;
17890;SDS011;9071;48.220;14.480;2023-07-24T02:31:09;9.30;;;6.25;;
17890;SDS011;9071;48.220;14.480;2023-07-24T02:36:11;8.85;;;5.75;;
17890;SDS011;9071;48.220;14.480;2023-07-24T02:41:13;8.77;;;5.53;;
17890;SDS011;9071;48.220;14.480;2023-07-24T02:46:16;7.00;;;5.75;;
17890;SDS011;9071;48.220;14.480;2023-07-24T02:51:18;11.02;;;5.90;;
17890;SDS011;9071;48.220;14.480;2023-07-24T02:56:20;10.23;;;5.70;;
17890;SDS011;9071;48.220;14.480;2023-07-24T03:01:24;8.43;;;5.75;;
17890;SDS011;9071;48.220;14.480;2023-07-24T03:06:26;11.73;;;6.63;;
17890;SDS011;9071;48.220;14.480;2023-07-24T03:11:28;9.50;;;6.43;;
17890;SDS011;9071;48.220;14.480;2023-07-24T03:16:31;8.65;;;6.13;;
17890;SDS011;9071;48.220;14.480;2023-07-24T03:21:33;8.60;;;6.22;;
17890;SDS011;9071;48.220;14.480;2023-07-24T03:26:36;12.63;;;6.57;;
17890;SDS011;9071;48.220;14.480;2023-07-24T03:31:39;9.85;;;6.68;;
17890;SDS011;9071;48.220;14.480;2023-07-24T03:36:41;9.55;;;5.90;;
17890;SDS011;9071;48.220;14.480;2023-07-24T03:41:43;7.45;;;5.90;;
17890;SDS011;9071;48.220;14.480;2023-07-24T03:46:47;11.00;;;6.10;;
17890;SDS011;9071;48.220;14.480;2023-07-24T03:51:49;9.93;;;6.10;;
17890;SDS011;9071;48.220;14.480;2023-07-24T03:56:51;10.15;;;6.25;;
17890;SDS011;9071;48.220;14.480;2023-07-24T04:01:54;11.73;;;6.75;;
17890;SDS011;9071;48.220;14.480;2023-07-24T04:06:56;10.63;;;6.93;;
17890;SDS011;9071;48.220;14.480;2023-07-24T04:11:58;9.18;;;6.15;;
17890;SDS011;9071;48.220;14.480;2023-07-24T04:17:02;10.68;;;6.38;;
17890;SDS011;9071;48.220;14.480;2023-07-24T04:22:04;9.32;;;6.28;;
17890;SDS011;9071;48.220;14.480;2023-07-24T04:27:06;7.95;;;5.95;;
17890;SDS011;9071;48.220;14.480;2023-07-24T04:32:09;10.20;;;6.40;;
17890;SDS011;9071;48.220;14.480;2023-07-24T04:37:11;9.35;;;6.30;;
17890;SDS011;9071;48.220;14.480;2023-07-24T04:42:14;12.13;;;7.10;;
17890;SDS011;9071;48.220;14.480;2023-07-24T04:47:17;14.10;;;6.78;;
17890;SDS011;9071;48.220;14.480;2023-07-24T04:52:19;14.07;;;6.70;;
17890;SDS011;9071;48.220;14.480;2023-07-24T04:57:21;13.77;;;6.57;;
17890;SDS011;9071;48.220;14.480;2023-07-24T05:02:24;22.02;;;7.53;;
17890;SDS011;9071;48.220;14.480;2023-07-24T05:07:27;13.55;;;6.57;;
17890;SDS011;9071;48.220;14.480;2023-07-24T05:12:29;14.15;;;6.53;;
17890;SDS011;9071;48.220;14.480;2023-07-24T05:17:32;10.35;;;5.35;;
17890;SDS011;9071;48.220;14.480;2023-07-24T05:22:34;10.77;;;6.57;;
17890;SDS011;9071;48.220;14.480;2023-07-24T05:27:36;10.88;;;6.63;;
17890;SDS011;9071;48.220;14.480;2023-07-24T05:32:40;23.45;;;7.53;;
17890;SDS011;9071;48.220;14.480;2023-07-24T05:37:42;25.88;;;7.95;;
17890;SDS011;9071;48.220;14.480;2023-07-24T05:42:44;14.10;;;6.63;;
17890;SDS011;9071;48.220;14.480;2023-07-24T05:47:49;11.63;;;6.22;;
17890;SDS011;9071;48.220;14.480;2023-07-24T05:52:51;13.15;;;6.75;;
17890;SDS011;9071;48.220;14.480;2023-07-24T05:57:53;12.45;;;6.63;;
17890;SDS011;9071;48.220;14.480;2023-07-24T06:02:56;12.80;;;6.15;;
17890;SDS011;9071;48.220;14.480;2023-07-24T06:07:58;14.05;;;7.00;;
17890;SDS011;9071;48.220;14.480;2023-07-24T06:13:00;15.95;;;7.47;;
17890;SDS011;9071;48.220;14.480;2023-07-24T06:18:04;10.82;;;6.45;;
17890;SDS011;9071;48.220;14.480;2023-07-24T06:23:06;10.85;;;6.15;;
17890;SDS011;9071;48.220;14.480;2023-07-24T06:28:08;12.57;;;6.32;;
17890;SDS011;9071;48.220;14.480;2023-07-24T06:33:11;13.75;;;6.95;;
17890;SDS011;9071;48.220;14.480;2023-07-24T06:38:13;11.75;;;6.82;;
17890;SDS011;9071;48.220;14.480;2023-07-24T06:43:15;12.57;;;6.53;;
17890;SDS011;9071;48.220;14.480;2023-07-24T06:48:19;13.52;;;6.32;;
17890;SDS011;9071;48.220;14.480;2023-07-24T06:53:21;10.90;;;6.40;;
17890;SDS011;9071;48.220;14.480;2023-07-24T06:58:23;10.38;;;6.57;;
17890;SDS011;9071;48.220;14.480;2023-07-24T07:03:26;11.75;;;6.70;;
17890;SDS011;9071;48.220;14.480;2023-07-24T07:08:29;9.35;;;6.30;;
17890;SDS011;9071;48.220;14.480;2023-07-24T07:13:31;10.65;;;6.45;;
17890;SDS011;9071;48.220;14.480;2023-07-24T07:18:34;12.55;;;5.95;;
17890;SDS011;9071;48.220;14.480;2023-07-24T07:23:36;9.70;;;6.22;;
17890;SDS011;9071;48.220;14.480;2023-07-24T07:28:38;10.32;;;6.50;;
17890;SDS011;9071;48.220;14.480;2023-07-24T07:33:42;9.55;;;6.43;;
17890;SDS011;9071;48.220;14.480;2023-07-24T07:38:44;9.38;;;6.22;;
17890;SDS011;9071;48.220;14.480;2023-07-24T07:43:46;10.88;;;6.40;;
17890;SDS011;9071;48.220;14.480;2023-07-24T07:48:49;8.43;;;5.57;;
17890;SDS011;9071;48.220;14.480;2023-07-24T07:53:51;8.25;;;6.28;;
17890;SDS011;9071;48.220;14.480;2023-07-24T07:58:53;9.38;;;5.95;;
17890;SDS011;9071;48.220;14.480;2023-07-24T08:03:57;8.57;;;6.85;;
17890;SDS011;9071;48.220;14.480;2023-07-24T08:08:59;8.98;;;6.72;;
17890;SDS011;9071;48.220;14.480;2023-07-24T08:14:01;9.07;;;6.30;;
17890;SDS011;9071;48.220;14.480;2023-07-24T08:19:04;8.73;;;6.13;;
17890;SDS011;9071;48.220;14.480;2023-07-24T08:24:07;9.00;;;5.82;;
17890;SDS011;9071;48.220;14.480;2023-07-24T08:29:09;10.50;;;6.22;;
17890;SDS011;9071;48.220;14.480;2023-07-24T08:34:12;7.18;;;5.97;;
17890;SDS011;9071;48.220;14.480;2023-07-24T08:39:14;8.27;;;5.85;;
17890;SDS011;9071;48.220;14.480;2023-07-24T08:44:16;8.98;;;5.97;;
17890;SDS011;9071;48.220;14.480;2023-07-24T08:49:20;9.05;;;5.97;;
17890;SDS011;9071;48.220;14.480;2023-07-24T08:54:23;7.40;;;6.05;;
17890;SDS011;9071;48.220;14.480;2023-07-24T08:59:27;13.38;;;5.90;;
17890;SDS011;9071;48.220;14.480;2023-07-24T09:04:31;9.82;;;5.53;;
17890;SDS011;9071;48.220;14.480;2023-07-24T09:09:33;8.77;;;5.63;;
17890;SDS011;9071;48.220;14.480;2023-07-24T09:14:35;9.48;;;5.65;;
17890;SDS011;9071;48.220;14.480;2023-07-24T09:19:40;11.63;;;6.22;;
17890;SDS011;9071;48.220;14.480;2023-07-24T09:24:49;9.68;;;5.72;;
17890;SDS011;9071;48.220;14.480;2023-07-24T09:29:52;9.30;;;5.93;;
17890;SDS011;9071;48.220;14.480;2023-07-24T09:34:55;8.20;;;6.10;;
17890;SDS011;9071;48.220;14.480;2023-07-24T09:39:57;11.75;;;6.10;;
17890;SDS011;9071;48.220;14.480;2023-07-24T09:45:00;14.98;;;6.85;;
17890;SDS011;9071;48.220;14.480;2023-07-24T09:50:04;12.50;;;6.93;;
17890;SDS011;9071;48.220;14.480;2023-07-24T09:55:08;14.20;;;6.90;;
17890;SDS011;9071;48.220;14.480;2023-07-24T10:00:13;13.15;;;6.65;;
17890;SDS011;9071;48.220;14.480;2023-07-24T10:05:17;10.80;;;6.55;;
17890;SDS011;9071;48.220;14.480;2023-07-24T10:10:19;14.05;;;6.78;;
17890;SDS011;9071;48.220;14.480;2023-07-24T10:15:22;25.42;;;7.40;;
17890;SDS011;9071;48.220;14.480;2023-07-24T10:20:32;11.25;;;6.97;;
17890;SDS011;9071;48.220;14.480;2023-07-24T10:25:37;10.98;;;5.90;;
17890;SDS011;9071;48.220;14.480;2023-07-24T10:30:42;9.93;;;6.38;;
17890;SDS011;9071;48.220;14.480;2023-07-24T10:35:49;10.00;;;6.70;;
17890;SDS011;9071;48.220;14.480;2023-07-24T10:41:00;10.82;;;7.35;;
17890;SDS011;9071;48.220;14.480;2023-07-24T10:46:03;10.57;;;6.50;;
17890;SDS011;9071;48.220;14.480;2023-07-24T10:51:07;10.93;;;6.55;;
17890;SDS011;9071;48.220;14.480;2023-07-24T10:56:10;10.70;;;6.55;;
17890;SDS011;9071;48.220;14.480;2023-07-24T11:01:12;16.40;;;6.30;;
17890;SDS011;9071;48.220;14.480;2023-07-24T11:06:17;10.98;;;6.60;;
17890;SDS011;9071;48.220;14.480;2023-07-24T11:11:20;10.10;;;6.47;;
17890;SDS011;9071;48.220;14.480;2023-07-24T11:16:22;11.40;;;6.80;;
17890;SDS011;9071;48.220;14.480;2023-07-24T11:21:26;11.80;;;6.70;;
17890;SDS011;9071;48.220;14.480;2023-07-24T11:26:29;13.40;;;7.53;;
17890;SDS011;9071;48.220;14.480;2023-07-24T11:31:36;11.90;;;7.03;;
17890;SDS011;9071;48.220;14.480;2023-07-24T11:36:40;14.88;;;8.00;;
17890;SDS011;9071;48.220;14.480;2023-07-24T11:41:42;13.18;;;7.35;;
17890;SDS011;9071;48.220;14.480;2023-07-24T11:46:44;12.85;;;7.75;;
17890;SDS011;9071;48.220;14.480;2023-07-24T11:51:48;12.63;;;7.97;;
17890;SDS011;9071;48.220;14.480;2023-07-24T11:56:51;13.57;;;8.10;;
17890;SDS011;9071;48.220;14.480;2023-07-24T12:01:53;12.40;;;7.80;;
17890;SDS011;9071;48.220;14.480;2023-07-24T12:06:57;14.13;;;8.43;;
17890;SDS011;9071;48.220;14.480;2023-07-24T12:11:59;17.25;;;8.05;;
17890;SDS011;9071;48.220;14.480;2023-07-24T12:17:04;15.80;;;8.00;;
17890;SDS011;9071;48.220;14.480;2023-07-24T12:22:11;13.10;;;7.65;;
17890;SDS011;9071;48.220;14.480;2023-07-24T12:27:13;10.80;;;7.47;;
17890;SDS011;9071;48.220;14.480;2023-07-24T12:32:15;12.52;;;7.38;;
17890;SDS011;9071;48.220;14.480;2023-07-24T12:37:19;10.40;;;7.03;;
17890;SDS011;9071;48.220;14.480;2023-07-24T12:42:21;11.88;;;7.65;;
17890;SDS011;9071;48.220;14.480;2023-07-24T12:47:24;10.45;;;6.85;;
17890;SDS011;9071;48.220;14.480;2023-07-24T12:52:28;10.82;;;6.90;;
17890;SDS011;9071;48.220;14.480;2023-07-24T12:57:31;12.13;;;6.35;;
17890;SDS011;9071;48.220;14.480;2023-07-24T13:02:34;9.63;;;6.82;;
17890;SDS011;9071;48.220;14.480;2023-07-24T13:07:39;7.85;;;6.13;;
17890;SDS011;9071;48.220;14.480;2023-07-24T13:12:41;10.13;;;6.18;;
17890;SDS011;9071;48.220;14.480;2023-07-24T13:17:44;9.25;;;6.47;;
17890;SDS011;9071;48.220;14.480;2023-07-24T13:22:48;10.38;;;6.38;;
17890;SDS011;9071;48.220;14.480;2023-07-24T13:27:50;8.52;;;6.00;;
17890;SDS011;9071;48.220;14.480;2023-07-24T13:32:53;8.70;;;6.28;;
17890;SDS011;9071;48.220;14.480;2023-07-24T13:37:56;8.07;;;6.40;;
17890;SDS011;9071;48.220;14.480;2023-07-24T13:42:58;9.73;;;6.65;;
17890;SDS011;9071;48.220;14.480;2023-07-24T13:48:01;10.98;;;6.55;;
17890;SDS011;9071;48.220;14.480;2023-07-24T13:53:05;7.47;;;5.85;;
17890;SDS011;9071;48.220;14.480;2023-07-24T13:58:07;10.65;;;6.47;;
17890;SDS011;9071;48.220;14.480;2023-07-24T14:03:09;10.05;;;6.35;;
17890;SDS011;9071;48.220;14.480;2023-07-24T14:08:13;9.73;;;6.32;;
17890;SDS011;9071;48.220;14.480;2023-07-24T14:13:15;10.82;;;6.30;;
17890;SDS011;9071;48.220;14.480;2023-07-24T14:18:17;10.30;;;6.40;;
17890;SDS011;9071;48.220;14.480;2023-07-24T14:23:21;12.65;;;6.53;;
17890;SDS011;9071;48.220;14.480;2023-07-24T14:28:23;11.75;;;6.32;;
17890;SDS011;9071;48.220;14.480;2023-07-24T14:33:25;8.85;;;6.70;;
17890;SDS011;9071;48.220;14.480;2023-07-24T14:38:28;11.23;;;6.55;;
17890;SDS011;9071;48.220;14.480;2023-07-24T14:43:31;10.70;;;6.40;;
17890;SDS011;9071;48.220;14.480;2023-07-24T14:48:33;10.57;;;5.95;;
17890;SDS011;9071;48.220;14.480;2023-07-24T14:53:36;7.90;;;6.25;;
17890;SDS011;9071;48.220;14.480;2023-07-24T14:58:38;10.05;;;6.13;;
17890;SDS011;9071;48.220;14.480;2023-07-24T15:03:42;11.30;;;5.90;;
17890;SDS011;9071;48.220;14.480;2023-07-24T15:08:45;13.13;;;6.22;;
17890;SDS011;9071;48.220;14.480;2023-07-24T15:13:48;14.98;;;7.25;;
17890;SDS011;9071;48.220;14.480;2023-07-24T15:18:50;12.93;;;7.10;;
17890;SDS011;9071;48.220;14.480;2023-07-24T15:23:53;15.48;;;6.85;;
17890;SDS011;9071;48.220;14.480;2023-07-24T15:28:55;9.32;;;6.32;;
17890;SDS011;9071;48.220;14.480;2023-07-24T15:33:57;13.45;;;6.20;;
17890;SDS011;9071;48.220;14.480;2023-07-24T15:39:01;9.60;;;6.72;;
17890;SDS011;9071;48.220;14.480;2023-07-24T15:44:03;14.75;;;7.18;;
17890;SDS011;9071;48.220;14.480;2023-07-24T15:49:06;10.60;;;6.20;;
17890;SDS011;9071;48.220;14.480;2023-07-24T15:54:10;11.40;;;6.57;;
17890;SDS011;9071;48.220;14.480;2023-07-24T15:59:12;13.13;;;6.03;;
17890;SDS011;9071;48.220;14.480;2023-07-24T16:04:14;9.70;;;5.10;;
17890;SDS011;9071;48.220;14.480;2023-07-24T16:09:18;10.25;;;5.22;;
17890;SDS011;9071;48.220;14.480;2023-07-24T16:14:22;8.52;;;5.35;;
17890;SDS011;9071;48.220;14.480;2023-07-24T16:19:24;9.63;;;5.90;;
17890;SDS011;9071;48.220;14.480;2023-07-24T16:24:29;10.63;;;5.60;;
17890;SDS011;9071;48.220;14.480;2023-07-24T16:29:31;8.65;;;5.55;;
17890;SDS011;9071;48.220;14.480;2023-07-24T16:34:34;11.00;;;6.78;;
17890;SDS011;9071;48.220;14.480;2023-07-24T16:39:38;9.52;;;5.88;;
17890;SDS011;9071;48.220;14.480;2023-07-24T16:44:40;8.43;;;5.88;;
17890;SDS011;9071;48.220;14.480;2023-07-24T16:49:42;7.32;;;5.63;;
17890;SDS011;9071;48.220;14.480;2023-07-24T16:54:46;10.95;;;6.28;;
17890;SDS011;9071;48.220;14.480;2023-07-24T16:59:48;9.13;;;5.78;;
17890;SDS011;9071;48.220;14.480;2023-07-24T17:04:51;10.45;;;6.05;;
17890;SDS011;9071;48.220;14.480;2023-07-24T17:09:54;9.43;;;6.00;;
17890;SDS011;9071;48.220;14.480;2023-07-24T17:14:56;11.75;;;7.07;;
17890;SDS011;9071;48.220;14.480;2023-07-24T17:19:58;12.02;;;7.03;;
17890;SDS011;9071;48.220;14.480;2023-07-24T17:25:02;8.82;;;5.68;;
17890;SDS011;9071;48.220;14.480;2023-07-24T17:30:04;8.52;;;5.50;;
17890;SDS011;9071;48.220;14.480;2023-07-24T17:35:08;8.07;;;4.18;;
17890;SDS011;9071;48.220;14.480;2023-07-24T17:40:12;5.75;;;3.92;;
17890;SDS011;9071;48.220;14.480;2023-07-24T17:45:14;7.13;;;3.90;;
17890;SDS011;9071;48.220;14.480;2023-07-24T17:50:16;7.13;;;4.03;;
17890;SDS011;9071;48.220;14.480;2023-07-24T17:55:21;7.65;;;4.45;;
17890;SDS011;9071;48.220;14.480;2023-07-24T18:00:23;6.47;;;4.07;;
17890;SDS011;9071;48.220;14.480;2023-07-24T18:05:25;8.50;;;4.78;;
17890;SDS011;9071;48.220;14.480;2023-07-24T18:10:29;8.93;;;4.75;;
17890;SDS011;9071;48.220;14.480;2023-07-24T18:15:31;16.58;;;5.45;;
17890;SDS011;9071;48.220;14.480;2023-07-24T18:20:33;10.27;;;4.80;;
17890;SDS011;9071;48.220;14.480;2023-07-24T18:25:37;9.88;;;5.30;;
17890;SDS011;9071;48.220;14.480;2023-07-24T18:30:39;8.10;;;5.03;;
17890;SDS011;9071;48.220;14.480;2023-07-24T18:35:41;9.00;;;5.53;;
17890;SDS011;9071;48.220;14.480;2023-07-24T18:40:45;8.05;;;5.07;;
17890;SDS011;9071;48.220;14.480;2023-07-24T18:45:47;11.57;;;5.53;;
17890;SDS011;9071;48.220;14.480;2023-07-24T18:50:49;8.55;;;5.65;;
17890;SDS011;9071;48.220;14.480;2023-07-24T18:55:53;9.20;;;5.47;;
17890;SDS011;9071;48.220;14.480;2023-07-24T19:00:55;7.57;;;5.43;;
17890;SDS011;9071;48.220;14.480;2023-07-24T19:05:57;9.93;;;6.30;;
17890;SDS011;9071;48.220;14.480;2023-07-24T19:11:02;10.07;;;6.15;;
17890;SDS011;9071;48.220;14.480;2023-07-24T19:16:04;9.95;;;6.25;;
17890;SDS011;9071;48.220;14.480;2023-07-24T19:21:06;8.10;;;6.25;;
17890;SDS011;9071;48.220;14.480;2023-07-24T19:26:09;10.40;;;5.82;;
17890;SDS011;9071;48.220;14.480;2023-07-24T19:31:13;8.07;;;5.38;;
17890;SDS011;9071;48.220;14.480;2023-07-24T19:36:15;7.25;;;5.15;;
17890;SDS011;9071;48.220;14.480;2023-07-24T19:41:18;8.00;;;5.60;;
17890;SDS011;9071;48.220;14.480;2023-07-24T19:46:20;10.80;;;5.38;;
17890;SDS011;9071;48.220;14.480;2023-07-24T19:51:23;8.70;;;5.47;;
17890;SDS011;9071;48.220;14.480;2023-07-24T19:56:26;7.45;;;4.60;;
17890;SDS011;9071;48.220;14.480;2023-07-24T20:01:28;7.60;;;4.50;;
17890;SDS011;9071;48.220;14.480;2023-07-24T20:06:30;6.07;;;4.22;;
17890;SDS011;9071;48.220;14.480;2023-07-24T20:11:34;6.30;;;4.15;;
17890;SDS011;9071;48.220;14.480;2023-07-24T20:16:36;8.98;;;4.80;;
17890;SDS011;9071;48.220;14.480;2023-07-24T20:21:39;6.82;;;4.57;;
17890;SDS011;9071;48.220;14.480;2023-07-24T20:26:43;8.65;;;4.78;;
17890;SDS011;9071;48.220;14.480;2023-07-24T20:31:45;9.57;;;5.95;;
17890;SDS011;9071;48.220;14.480;2023-07-24T20:36:47;8.50;;;5.28;;
17890;SDS011;9071;48.220;14.480;2023-07-24T20:41:50;10.27;;;5.38;;
17890;SDS011;9071;48.220;14.480;2023-07-24T20:46:53;10.23;;;6.30;;
17890;SDS011;9071;48.220;14.480;2023-07-24T20:51:55;11.85;;;5.55;;
17890;SDS011;9071;48.220;14.480;2023-07-24T20:56:58;11.30;;;6.40;;
17890;SDS011;9071;48.220;14.480;2023-07-24T21:02:00;9.60;;;5.85;;
17890;SDS011;9071;48.220;14.480;2023-07-24T21:07:03;15.25;;;6.03;;
17890;SDS011;9071;48.220;14.480;2023-07-24T21:12:07;9.35;;;6.10;;
17890;SDS011;9071;48.220;14.480;2023-07-24T21:17:09;8.10;;;5.47;;
17890;SDS011;9071;48.220;14.480;2023-07-24T21:22:11;8.85;;;6.30;;
17890;SDS011;9071;48.220;14.480;2023-07-24T21:27:15;11.73;;;6.10;;
17890;SDS011;9071;48.220;14.480;2023-07-24T21:32:17;11.10;;;7.63;;
17890;SDS011;9071;48.220;14.480;2023-07-24T21:37:19;11.15;;;6.75;;
17890;SDS011;9071;48.220;14.480;2023-07-24T21:42:23;10.98;;;6.60;;
17890;SDS011;9071;48.220;14.480;2023-07-24T21:47:25;13.55;;;7.88;;
17890;SDS011;9071;48.220;14.480;2023-07-24T21:52:27;10.13;;;7.43;;
17890;SDS011;9071;48.220;14.480;2023-07-24T21:57:31;12.25;;;7.95;;
17890;SDS011;9071;48.220;14.480;2023-07-24T22:02:33;14.35;;;7.50;;
17890;SDS011;9071;48.220;14.480;2023-07-24T22:07:35;10.82;;;7.30;;
17890;SDS011;9071;48.220;14.480;2023-07-24T22:12:38;10.93;;;7.40;;
17890;SDS011;9071;48.220;14.480;2023-07-24T22:17:40;11.38;;;8.02;;
17890;SDS011;9071;48.220;14.480;2023-07-24T22:22:42;14.05;;;7.82;;
17890;SDS011;9071;48.220;14.480;2023-07-24T22:27:46;12.50;;;8.20;;
17890;SDS011;9071;48.220;14.480;2023-07-24T22:32:48;15.32;;;8.25;;
17890;SDS011;9071;48.220;14.480;2023-07-24T22:37:50;11.70;;;8.60;;
17890;SDS011;9071;48.220;14.480;2023-07-24T22:42:53;10.43;;;7.53;;
17890;SDS011;9071;48.220;14.480;2023-07-24T22:47:55;12.80;;;7.53;;
17890;SDS011;9071;48.220;14.480;2023-07-24T22:52:57;10.40;;;7.35;;
17890;SDS011;9071;48.220;14.480;2023-07-24T22:58:01;13.07;;;8.05;;
17890;SDS011;9071;48.220;14.480;2023-07-24T23:03:03;10.02;;;7.45;;
17890;SDS011;9071;48.220;14.480;2023-07-24T23:08:05;12.52;;;7.88;;
17890;SDS011;9071;48.220;14.480;2023-07-24T23:13:09;14.70;;;8.63;;
17890;SDS011;9071;48.220;14.480;2023-07-24T23:18:11;9.25;;;6.63;;
17890;SDS011;9071;48.220;14.480;2023-07-24T23:23:13;12.45;;;7.43;;
17890;SDS011;9071;48.220;14.480;2023-07-24T23:28:16;8.95;;;6.25;;
17890;SDS011;9071;48.220;14.480;2023-07-24T23:33:18;10.25;;;6.85;;
17890;SDS011;9071;48.220;14.480;2023-07-24T23:38:20;8.85;;;6.40;;
17890;SDS011;9071;48.220;14.480;2023-07-24T23:43:24;10.32;;;6.43;;
17890;SDS011;9071;48.220;14.480;2023-07-24T23:48:26;10.80;;;6.35;;
17890;SDS011;9071;48.220;14.480;2023-07-24T23:53:28;10.43;;;5.93;;
17890;SDS011;9071;48.220;14.480;2023-07-24T23:58:31;11.40;;;6.25;;
